Time;durP1;ratioP1;P1;durP2;ratioP2;P2;SDS_P1;SDS_P2;PMS_P1;PMS_P2;Temp;Humidity;BMP_temperature;BMP_pressure;BME280_temperature;BME280_humidity;BME280_pressure;Samples;Min_cycle;Max_cycle;Signal;HPM_P1;HPM_P2
2022/07/11 00:02:12;;;;;;;12.02;3.13;;;;;;;10.64;100.00;101670.78;5025365;28;20038;-75
2022/07/11 00:04:38;;;;;;;9.10;2.53;;;;;;;10.69;100.00;101671.19;5024655;28;20044;-76
2022/07/11 00:07:05;;;;;;;10.63;2.95;;;;;;;10.64;100.00;101662.78;5024338;28;20561;-76
2022/07/11 00:09:31;;;;;;;14.57;3.55;;;;;;;10.60;100.00;101656.03;5023329;28;20572;-75
2022/07/11 00:11:57;;;;;;;9.07;2.50;;;;;;;10.64;100.00;101665.44;5024414;28;20327;-75
2022/07/11 00:14:22;;;;;;;14.57;3.67;;;;;;;10.53;100.00;101656.56;5023040;28;20397;-76
2022/07/11 00:16:48;;;;;;;8.25;2.20;;;;;;;10.48;100.00;101650.81;5018786;28;20108;-76
2022/07/11 00:19:15;;;;;;;10.63;2.75;;;;;;;10.52;100.00;101660.22;5024243;28;20448;-76
2022/07/11 00:21:40;;;;;;;7.93;2.72;;;;;;;10.53;100.00;101661.06;5023892;28;20420;-76
2022/07/11 00:24:07;;;;;;;17.33;3.53;;;;;;;10.39;100.00;101656.16;5023834;28;20504;-76
2022/07/11 00:26:37;;;;;;;11.38;2.67;;;;;;;10.40;100.00;101660.53;5024255;28;20034;-76
2022/07/11 00:29:03;;;;;;;11.05;2.63;;;;;;;10.46;100.00;101668.78;5024255;28;20100;-76
2022/07/11 00:31:29;;;;;;;15.38;3.15;;;;;;;10.49;100.00;101663.19;5023665;28;20037;-76
2022/07/11 00:33:55;;;;;;;7.80;2.50;;;;;;;10.44;100.00;101662.78;5007574;28;20033;-76
2022/07/11 00:36:20;;;;;;;;;;;;;;;10.49;100.00;101665.03;5023615;28;20418;-76
2022/07/11 00:38:46;;;;;;;;;;;;;;;10.46;100.00;101671.47;5018663;28;20024;-76
2022/07/11 00:41:11;;;;;;;9.30;2.43;;;;;;;10.48;100.00;101666.81;5007167;28;20297;-76
2022/07/11 00:43:38;;;;;;;10.07;2.08;;;;;;;10.47;100.00;101662.50;5023818;28;20470;-76
2022/07/11 00:46:05;;;;;;;13.48;3.38;;;;;;;10.47;100.00;101657.16;5023928;28;20429;-75
2022/07/11 00:48:30;;;;;;;9.48;2.75;;;;;;;10.36;100.00;101649.25;5009371;28;20086;-76
2022/07/11 00:50:57;;;;;;;7.68;2.53;;;;;;;10.38;100.00;101663.31;5023592;28;20025;-75
2022/07/11 00:53:23;;;;;;;13.38;2.95;;;;;;;10.38;100.00;101659.81;5024766;28;20440;-76
2022/07/11 00:55:49;;;;;;;;;;;;;;;10.39;100.00;101659.66;5025553;28;20602;-76
2022/07/11 00:58:15;;;;;;;14.50;2.63;;;;;;;10.35;100.00;101653.75;5023639;28;19966;-75
2022/07/11 01:00:40;;;;;;;10.13;2.90;;;;;;;10.33;100.00;101654.88;5023153;28;20030;-76
2022/07/11 01:03:09;;;;;;;16.63;3.10;;;;;;;10.34;100.00;101662.75;5023461;28;20475;-76
2022/07/11 01:05:35;;;;;;;13.63;3.60;;;;;;;10.23;100.00;101660.19;5024941;28;20041;-76
2022/07/11 01:08:00;;;;;;;8.00;2.45;;;;;;;10.33;100.00;101666.41;5018992;28;20032;-76
2022/07/11 01:10:27;;;;;;;;;;;;;;;10.32;100.00;101663.88;5024730;28;20068;-75
2022/07/11 01:12:52;;;;;;;;;;;;;;;10.32;100.00;101654.06;5028796;28;19963;-76
2022/07/11 01:15:17;;;;;;;8.80;2.70;;;;;;;10.25;100.00;101652.03;5028915;28;19917;-75
2022/07/11 01:17:43;;;;;;;13.73;2.73;;;;;;;10.30;100.00;101655.16;5011003;28;20020;-76
2022/07/11 01:20:10;;;;;;;11.18;3.65;;;;;;;10.28;100.00;101662.44;5027123;28;20083;-76
2022/07/11 01:22:50;;;;;;;17.38;2.88;;;;;;;10.21;100.00;101655.94;5027388;28;20025;-76
2022/07/11 01:25:31;;;;;;;11.85;4.60;;;;;;;10.24;100.00;101663.69;5002867;28;20421;-76
2022/07/11 01:27:58;;;;;;;13.55;3.55;;;;;;;10.21;100.00;101661.28;5028349;28;20044;-75
2022/07/11 01:30:25;;;;;;;15.32;2.85;;;;;;;10.23;100.00;101667.31;5010204;28;20116;-76
2022/07/11 01:32:52;;;;;;;13.00;2.88;;;;;;;10.13;100.00;101657.47;5028426;28;20029;-76
2022/07/11 01:35:17;;;;;;;14.02;4.60;;;;;;;10.03;100.00;101664.63;5027227;28;20103;-75
2022/07/11 01:37:43;;;;;;;15.93;3.28;;;;;;;10.03;100.00;101667.28;5028368;28;20060;-76
2022/07/11 01:40:09;;;;;;;12.03;3.30;;;;;;;10.06;100.00;101674.19;5027969;28;20140;-76
2022/07/11 01:42:35;;;;;;;16.27;3.20;;;;;;;10.04;100.00;101666.28;5028219;28;20060;-75
2022/07/11 01:45:00;;;;;;;9.20;3.30;;;;;;;10.04;100.00;101663.63;5010504;28;20036;-76
2022/07/11 01:47:25;;;;;;;23.27;4.17;;;;;;;10.08;100.00;101673.06;5027053;28;20052;-75
2022/07/11 01:49:51;;;;;;;9.80;2.50;;;;;;;10.10;100.00;101668.44;5027023;28;20517;-76
2022/07/11 01:52:16;;;;;;;12.90;3.93;;;;;;;10.04;100.00;101666.28;5026731;28;20041;-76
2022/07/11 01:54:42;;;;;;;12.40;3.50;;;;;;;9.98;100.00;101656.19;5026735;28;20094;-76
2022/07/11 01:57:09;;;;;;;22.73;4.43;;;;;;;9.99;100.00;101671.19;5028123;28;20394;-76
2022/07/11 01:59:35;;;;;;;11.90;3.28;;;;;;;9.92;100.00;101667.41;5026705;28;20026;-75
2022/07/11 02:02:01;;;;;;;10.32;3.78;;;;;;;9.97;100.00;101664.31;5026858;28;20083;-75
2022/07/11 02:04:26;;;;;;;14.25;4.28;;;;;;;9.97;100.00;101670.50;5027602;28;20030;-75
2022/07/11 02:06:52;;;;;;;15.50;4.07;;;;;;;10.01;100.00;101673.75;5028063;28;20033;-76
2022/07/11 02:09:17;;;;;;;11.70;3.63;;;;;;;10.06;100.00;101667.00;5028259;28;20037;-76
2022/07/11 02:11:43;;;;;;;16.88;3.72;;;;;;;10.04;100.00;101666.28;5026425;28;20068;-75
2022/07/11 02:14:08;;;;;;;18.20;4.03;;;;;;;10.08;100.00;101678.38;5009630;28;20033;-76
2022/07/11 02:16:33;;;;;;;9.60;3.47;;;;;;;10.10;100.00;101672.94;5019793;28;20354;-76
2022/07/11 02:18:59;;;;;;;13.83;3.37;;;;;;;10.14;100.00;101661.00;5010195;28;20131;-74
2022/07/11 02:21:24;;;;;;;14.37;4.03;;;;;;;10.18;100.00;101662.41;5026231;28;20036;-75
2022/07/11 02:23:50;;;;;;;8.80;3.47;;;;;;;10.18;100.00;101657.06;5008625;28;20076;-75
2022/07/11 02:26:15;;;;;;;13.57;3.43;;;;;;;10.12;100.00;101647.78;5025153;28;20083;-75
2022/07/11 02:28:42;;;;;;;15.70;3.60;;;;;;;10.18;100.00;101651.72;5006656;28;20021;-75
2022/07/11 02:31:07;;;;;;;10.18;3.38;;;;;;;10.19;100.00;101663.25;5006613;28;20026;-76
2022/07/11 02:33:33;;;;;;;11.17;3.57;;;;;;;10.20;100.00;101659.59;5027524;28;20429;-75
2022/07/11 02:35:59;;;;;;;10.03;3.33;;;;;;;10.21;100.00;101655.94;5026141;28;20025;-76
2022/07/11 02:38:26;;;;;;;16.70;3.60;;;;;;;10.22;100.00;101662.97;5027156;28;20067;-76
2022/07/11 02:40:51;;;;;;;12.10;3.10;;;;;;;10.17;100.00;101658.06;5025686;28;20091;-76
2022/07/11 02:43:17;;;;;;;16.03;4.00;;;;;;;10.19;100.00;101660.59;5025473;28;20025;-75
2022/07/11 02:45:42;;;;;;;16.50;3.40;;;;;;;10.14;100.00;101655.69;5025399;28;20048;-76
2022/07/11 02:48:08;;;;;;;9.70;2.80;;;;;;;10.10;100.00;101665.75;5026719;28;20037;-77
2022/07/11 02:50:33;;;;;;;7.87;2.97;;;;;;;10.07;100.00;101671.38;5022819;28;20505;-76
2022/07/11 02:52:59;;;;;;;16.67;4.63;;;;;;;10.08;100.00;101673.06;5007266;28;20038;-75
2022/07/11 02:55:24;;;;;;;19.67;3.47;;;;;;;10.19;100.00;101673.94;5026283;28;20037;-75
2022/07/11 02:57:50;;;;;;;10.60;3.53;;;;;;;10.22;100.00;101679.84;5027013;28;20033;-76
2022/07/11 03:00:17;;;;;;;16.00;3.67;;;;;;;10.24;100.00;101679.72;5025276;28;20037;-76
2022/07/11 03:02:44;;;;;;;7.35;2.90;;;;;;;10.19;100.00;101673.94;5008963;28;20044;-76
2022/07/11 03:05:11;;;;;;;12.85;3.90;;;;;;;10.23;100.00;101676.19;5026862;28;20044;-76
2022/07/11 03:07:36;;;;;;;;;;;;;;;10.28;100.00;101673.13;5027802;28;20017;-76
2022/07/11 03:10:02;;;;;;;;;;;;;;;10.31;100.00;101673.69;5025852;28;20321;-75
2022/07/11 03:12:27;;;;;;;9.93;2.90;;;;;;;10.24;100.00;101669.03;5000804;28;19970;-75
2022/07/11 03:14:53;;;;;;;13.77;4.13;;;;;;;10.24;100.00;101685.03;5025537;28;20552;-76
2022/07/11 03:17:19;;;;;;;13.57;3.20;;;;;;;10.15;100.00;101676.88;5025235;28;20198;-76
2022/07/11 03:19:44;;;;;;;14.02;3.92;;;;;;;10.14;100.00;101671.69;5025187;28;20037;-75
2022/07/11 03:22:10;;;;;;;11.60;3.47;;;;;;;10.12;100.00;101674.47;5008532;28;20079;-75
2022/07/11 03:24:36;;;;;;;12.25;3.65;;;;;;;10.18;100.00;101672.22;5025045;28;20037;-76
2022/07/11 03:27:02;;;;;;;9.43;3.25;;;;;;;10.24;100.00;101677.03;5025316;28;20029;-75
2022/07/11 03:29:28;;;;;;;19.88;4.18;;;;;;;10.29;100.00;101680.16;5025908;28;20040;-76
2022/07/11 03:31:53;;;;;;;14.40;3.33;;;;;;;10.27;100.00;101677.59;5026051;28;20256;-76
2022/07/11 03:34:18;;;;;;;11.70;3.30;;;;;;;10.25;100.00;101678.72;5025782;28;20063;-75
2022/07/11 03:36:46;;;;;;;14.33;3.77;;;;;;;10.24;100.00;101677.88;5026214;28;20073;-76
2022/07/11 03:39:13;;;;;;;18.20;4.43;;;;;;;10.34;100.00;101678.75;5024942;28;20029;-75
2022/07/11 03:41:38;;;;;;;18.95;4.15;;;;;;;10.33;100.00;101670.91;5024625;28;20021;-76
2022/07/11 03:44:04;;;;;;;20.33;3.83;;;;;;;10.26;100.00;101680.41;5025502;28;20037;-76
2022/07/11 03:46:29;;;;;;;10.13;3.58;;;;;;;10.34;100.00;101688.59;5001949;28;20087;-75
2022/07/11 03:48:55;;;;;;;11.17;3.30;;;;;;;10.30;100.00;101681.84;5008202;28;20120;-76
2022/07/11 03:51:20;;;;;;;14.57;3.37;;;;;;;10.28;100.00;101684.66;5024408;28;20025;-76
2022/07/11 03:53:45;;;;;;;18.07;4.00;;;;;;;10.36;100.00;101689.31;5024471;28;20486;-75
2022/07/11 03:56:11;;;;;;;12.23;3.90;;;;;;;10.48;100.00;101690.03;5016507;28;20434;-75
2022/07/11 03:58:37;;;;;;;12.95;3.00;;;;;;;10.54;100.00;101684.97;5025739;28;20485;-76
2022/07/11 04:01:02;;;;;;;10.23;3.10;;;;;;;10.59;100.00;101683.72;5025392;28;20099;-76
2022/07/11 04:03:28;;;;;;;16.53;3.30;;;;;;;10.60;100.00;101675.56;5024014;28;20068;-76
2022/07/11 04:05:53;;;;;;;17.93;3.63;;;;;;;10.66;100.00;101674.16;5008160;28;20549;-75
2022/07/11 04:08:18;;;;;;;13.47;3.47;;;;;;;10.61;100.00;101671.91;5024456;28;20040;-76
2022/07/11 04:10:44;;;;;;;9.07;3.47;;;;;;;10.69;100.00;101668.53;5023986;28;20371;-76
2022/07/11 04:13:09;;;;;;;17.00;3.53;;;;;;;10.78;100.00;101673.03;5025347;28;20033;-76
2022/07/11 04:15:35;;;;;;;15.50;3.60;;;;;;;10.85;100.00;101667.97;5024330;28;20020;-76
2022/07/11 04:18:00;;;;;;;14.03;3.63;;;;;;;10.88;100.00;101668.50;5023704;28;20460;-75
2022/07/11 04:20:26;;;;;;;15.13;3.88;;;;;;;10.93;100.00;101663.63;5025097;28;20021;-75
2022/07/11 04:22:51;;;;;;;14.68;3.35;;;;;;;10.89;100.00;101656.84;5007479;28;20440;-76
2022/07/11 04:25:17;;;;;;;11.10;3.53;;;;;;;11.04;100.00;101664.44;5024022;28;20036;-75
2022/07/11 04:27:42;;;;;;;6.50;2.60;;;;;;;11.14;100.00;101665.25;5024119;28;20029;-75
2022/07/11 04:30:08;;;;;;;10.53;3.10;;;;;;;11.28;100.00;101664.78;5006981;28;20705;-75
2022/07/11 04:32:35;;;;;;;13.27;3.50;;;;;;;11.34;100.00;101666.06;5025980;28;20445;-74
2022/07/11 04:35:01;;;;;;;14.45;3.50;;;;;;;11.36;100.00;101661.41;5023454;28;20478;-76
2022/07/11 04:37:26;;;;;;;14.48;3.10;;;;;;;11.51;100.00;101661.78;5023827;28;20040;-75
2022/07/11 04:39:52;;;;;;;11.13;2.77;;;;;;;11.58;100.00;101649.50;5017011;28;20025;-75
2022/07/11 04:42:17;;;;;;;15.97;3.67;;;;;;;11.70;100.00;101653.66;5023775;28;20124;-75
2022/07/11 04:44:42;;;;;;;13.37;2.77;;;;;;;11.82;100.00;101657.84;5025134;28;20029;-75
2022/07/11 04:47:08;;;;;;;7.43;2.63;;;;;;;11.92;100.00;101654.31;5023075;28;20500;-75
2022/07/11 04:49:33;;;;;;;15.33;2.67;;;;;;;12.05;100.00;101649.44;5024756;28;20021;-76
2022/07/11 04:51:59;;;;;;;12.95;2.97;;;;;;;12.09;100.00;101642.78;5024937;28;20406;-77
2022/07/11 04:54:25;;;;;;;8.40;4.30;;;;;;;12.12;100.00;101647.84;5023186;28;20033;-75
2022/07/11 04:56:50;;;;;;;9.60;2.72;;;;;;;12.21;100.00;101646.94;5024901;28;20025;-75
2022/07/11 04:59:16;;;;;;;16.23;3.00;;;;;;;12.27;100.00;101636.59;5007025;28;20087;-75
2022/07/11 05:01:41;;;;;;;12.33;2.37;;;;;;;12.44;100.00;101641.16;5022854;28;20049;-75
2022/07/11 05:04:07;;;;;;;13.13;2.70;;;;;;;12.56;100.00;101631.88;5023129;28;20397;-75
2022/07/11 05:06:33;;;;;;;8.63;2.60;;;;;;;12.56;100.00;101631.88;5023547;28;20459;-75
2022/07/11 05:08:58;;;;;;;16.48;3.65;;;;;;;12.81;100.00;101630.25;5023470;28;20029;-75
2022/07/11 05:11:24;;;;;;;7.43;2.30;;;;;;;12.85;100.00;101626.28;5023370;28;20313;-76
2022/07/11 05:13:49;;;;;;;11.80;3.43;;;;;;;12.81;100.00;101613.34;5022557;28;20363;-75
2022/07/11 05:16:15;;;;;;;11.20;3.40;;;;;;;12.88;100.00;101609.88;5022963;28;20041;-75
2022/07/11 05:18:40;;;;;;;11.07;2.23;;;;;;;13.17;100.00;101626.66;5016042;28;20057;-75
2022/07/11 05:21:05;;;;;;;8.43;2.50;;;;;;;13.21;100.00;101614.59;5022188;28;20479;-75
2022/07/11 05:23:31;;;;;;;11.77;2.50;;;;;;;13.50;100.00;101617.78;5024458;28;20029;-75
2022/07/11 05:25:56;;;;;;;10.17;2.70;;;;;;;13.64;100.00;101607.47;5023678;28;20032;-75
2022/07/11 05:28:22;;;;;;;11.57;2.50;;;;;;;13.73;100.00;101588.53;5023307;28;20467;-75
2022/07/11 05:30:47;;;;;;;9.07;3.20;;;;;;;13.77;100.00;101578.34;5022736;28;20018;-76
2022/07/11 05:33:12;;;;;;;15.17;3.10;;;;;;;14.11;100.00;101596.19;5016533;28;20384;-75
2022/07/11 05:35:38;;;;;;;10.23;2.37;;;;;;;14.52;100.00;101578.28;5023292;28;20037;-76
2022/07/11 05:38:03;;;;;;;5.87;2.13;;;;;;;15.24;100.00;101556.00;5007023;28;20473;-76
2022/07/11 05:40:29;;;;;;;7.90;2.37;;;;;;;15.99;100.00;101508.84;5019342;28;20399;-76
2022/07/11 05:42:54;;;;;;;8.83;3.03;;;;;;;16.36;100.00;101427.19;5003300;28;20120;-76
2022/07/11 05:45:19;;;;;;;8.20;1.87;;;;;;;17.09;100.00;101349.16;5022030;28;20483;-76
2022/07/11 05:47:45;;;;;;;9.83;2.97;;;;;;;18.14;100.00;101326.88;5024323;28;20096;-76
2022/07/11 05:50:10;;;;;;;8.73;2.10;;;;;;;18.63;100.00;101081.63;5021905;28;20060;-76
2022/07/11 05:52:36;;;;;;;12.83;2.33;;;;;;;18.31;100.00;101010.31;5017141;28;20417;-76
2022/07/11 05:55:01;;;;;;;3.97;1.63;;;;;;;18.48;100.00;101076.44;5022723;28;20034;-76
2022/07/11 05:57:26;;;;;;;5.60;1.50;;;;;;;19.10;100.00;101108.72;5024181;28;20264;-77
2022/07/11 05:59:53;;;;;;;8.20;2.10;;;;;;;19.16;100.00;100988.81;5026497;28;20049;-76
2022/07/11 06:02:21;;;;;;;12.23;3.10;;;;;;;18.81;100.00;101123.50;5010564;28;20276;-76
2022/07/11 06:04:46;;;;;;;8.15;1.80;;;;;;;19.46;100.00;101127.19;5015843;28;20030;-77
2022/07/11 06:07:11;;;;;;;16.90;3.63;;;;;;;19.57;100.00;101023.63;5017242;28;20632;-77
2022/07/11 06:09:37;;;;;;;8.50;1.97;;;;;;;19.40;100.00;101058.47;5027945;28;20107;-77
2022/07/11 06:12:03;;;;;;;7.40;1.88;;;;;;;20.18;100.00;101030.41;5027028;28;20160;-76
2022/07/11 06:14:29;;;;;;;5.57;1.45;;;;;;;19.97;100.00;100879.84;5027184;28;20044;-77
2022/07/11 06:16:54;;;;;;;5.25;1.65;;;;;;;19.50;100.00;100978.66;5027158;28;20029;-78
2022/07/11 06:19:19;;;;;;;4.77;1.63;;;;;;;19.74;100.00;101045.66;5027767;28;20033;-77
2022/07/11 06:21:45;;;;;;;6.53;1.70;;;;;;;20.07;97.88;100914.56;5009996;28;20316;-77
2022/07/11 06:24:11;;;;;;;8.38;1.48;;;;;;;19.01;100.00;100863.75;5026012;28;20044;-77
2022/07/11 06:26:36;;;;;;;4.80;1.27;;;;;;;19.61;99.40;100945.47;5010141;28;20498;-77
2022/07/11 06:29:02;;;;;;;6.77;2.00;;;;;;;19.82;100.00;101086.03;5027378;28;20346;-76
2022/07/11 06:31:27;;;;;;;4.05;1.30;;;;;;;19.63;100.00;101073.38;5027017;28;20083;-76
2022/07/11 06:33:57;;;;;;;8.43;2.03;;;;;;;20.40;99.47;101111.38;5027455;28;20029;-76
2022/07/11 06:36:26;;;;;;;6.20;1.77;;;;;;;21.04;91.05;101031.53;5009258;28;20279;-76
2022/07/11 06:38:52;;;;;;;6.05;2.05;;;;;;;20.93;81.58;100804.34;5027231;28;20116;-76
2022/07/11 06:41:18;;;;;;;7.72;1.45;;;;;;;21.12;87.07;101005.16;5026553;28;20067;-77
2022/07/11 06:43:44;;;;;;;7.05;1.27;;;;;;;21.13;84.37;100909.09;5026553;28;20528;-76
2022/07/11 06:46:09;;;;;;;5.83;1.90;;;;;;;20.09;88.09;100841.16;5027028;28;20064;-77
2022/07/11 06:48:35;;;;;;;4.73;1.43;;;;;;;20.44;88.49;100931.75;5026050;28;20369;-77
2022/07/11 06:51:00;;;;;;;4.15;1.30;;;;;;;20.72;86.68;100962.16;5027182;28;20377;-77
2022/07/11 06:53:26;;;;;;;10.23;2.85;;;;;;;21.00;82.00;100929.94;5026794;28;20036;-76
2022/07/11 06:55:51;;;;;;;8.47;1.60;;;;;;;21.20;80.59;100956.81;5009480;28;20044;-77
2022/07/11 06:58:32;;;;;;;5.37;1.77;;;;;;;21.00;83.72;100986.94;5026724;28;20045;-77
2022/07/11 07:01:03;;;;;;;5.28;1.55;;;;;;;21.09;77.47;100884.28;5026691;28;20099;-76
2022/07/11 07:03:28;;;;;;;6.85;1.35;;;;;;;21.02;77.66;100897.94;5026566;28;20136;-77
2022/07/11 07:05:55;;;;;;;9.65;1.63;;;;;;;20.98;74.87;100841.66;5017953;28;20437;-78
2022/07/11 07:08:25;;;;;;;4.38;1.13;;;;;;;21.67;72.39;100927.16;5017024;28;20041;-76
2022/07/11 07:10:51;;;;;;;3.85;1.30;;;;;;;20.99;75.48;100873.97;5024981;28;20025;-76
2022/07/11 07:13:18;;;;;;;3.25;1.10;;;;;;;21.65;69.38;100841.53;5026416;28;20381;-76
2022/07/11 07:15:43;;;;;;;3.42;1.30;;;;;;;21.17;70.39;100758.28;5024786;28;20041;-76
2022/07/11 07:18:09;;;;;;;5.65;1.08;;;;;;;21.45;70.23;100836.41;5026858;28;20036;-76
2022/07/11 07:20:34;;;;;;;3.50;1.00;;;;;;;21.67;70.51;100913.59;5025207;28;20029;-73
2022/07/11 07:22:59;;;;;;;6.30;1.17;;;;;;;20.73;71.64;100784.78;5026229;28;20660;-76
2022/07/11 07:25:25;;;;;;;2.87;0.90;;;;;;;20.69;74.85;100913.78;5016534;28;20052;-77
2022/07/11 07:27:50;;;;;;;4.70;1.07;;;;;;;19.77;71.78;100643.50;5025354;28;20067;-76
2022/07/11 07:30:16;;;;;;;4.20;1.73;;;;;;;19.97;81.75;100968.41;5024632;28;20475;-77
2022/07/11 07:32:41;;;;;;;4.43;1.27;;;;;;;20.10;82.34;101021.69;5024871;28;20166;-76
2022/07/11 07:35:07;;;;;;;4.70;1.00;;;;;;;20.54;82.77;101109.41;5025619;28;20645;-76
2022/07/11 07:37:32;;;;;;;3.45;1.25;;;;;;;21.15;73.96;100997.41;5026221;28;20074;-77
2022/07/11 07:39:58;;;;;;;4.30;1.37;;;;;;;20.91;75.32;100988.28;5025731;28;20426;-76
2022/07/11 07:42:23;;;;;;;1.83;1.00;;;;;;;20.72;78.37;101005.56;5024665;28;20041;-76
2022/07/11 07:44:49;;;;;;;3.80;1.03;;;;;;;20.68;74.33;100887.72;5026362;28;20552;-76
2022/07/11 07:47:14;;;;;;;2.08;0.88;;;;;;;20.84;72.69;100920.50;5024517;28;20037;-76
2022/07/11 07:49:40;;;;;;;2.10;1.17;;;;;;;20.87;76.59;101014.19;5016805;28;20029;-76
2022/07/11 07:52:05;;;;;;;5.90;0.97;;;;;;;20.59;73.68;100917.03;5025613;28;20025;-76
2022/07/11 07:54:31;;;;;;;5.00;1.75;;;;;;;20.87;74.60;100963.47;5025595;28;20462;-76
2022/07/11 07:56:56;;;;;;;6.63;1.60;;;;;;;20.12;75.52;100849.69;5017817;28;20105;-76
2022/07/11 07:59:24;;;;;;;5.30;1.20;;;;;;;20.59;76.68;101001.13;5016471;28;20410;-75
2022/07/11 08:01:51;;;;;;;2.30;0.80;;;;;;;20.55;66.19;100663.56;5002967;28;20504;-76
2022/07/11 08:04:17;;;;;;;3.67;1.00;;;;;;;20.51;71.82;100874.75;5004358;28;20041;-76
2022/07/11 08:06:42;;;;;;;4.80;0.90;;;;;;;20.53;70.48;100850.91;5025031;28;20021;-76
2022/07/11 08:09:08;;;;;;;2.47;1.03;;;;;;;20.54;69.52;100833.59;5025252;28;20132;-76
2022/07/11 08:11:34;;;;;;;2.70;1.10;;;;;;;20.75;68.26;100848.63;5025112;28;20274;-76
2022/07/11 08:14:00;;;;;;;4.60;1.10;;;;;;;21.41;67.72;100969.13;5013915;28;20280;-76
2022/07/11 08:16:28;;;;;;;5.63;1.15;;;;;;;21.02;67.41;100875.41;5018044;28;20060;-76
2022/07/11 08:18:55;;;;;;;4.55;1.30;;;;;;;20.93;65.83;100779.06;5023610;28;20124;-76
2022/07/11 08:21:21;;;;;;;6.63;1.45;;;;;;;21.30;63.94;100812.38;5005458;28;20033;-76
2022/07/11 08:23:47;;;;;;;5.88;1.35;;;;;;;21.48;64.54;100866.66;5010947;28;20041;-76
2022/07/11 08:26:12;;;;;;;5.27;1.40;;;;;;;21.79;64.33;100912.78;5023933;28;20026;-76
2022/07/11 08:28:37;;;;;;;2.20;1.13;;;;;;;21.41;66.28;100882.22;5024082;28;20036;-77
2022/07/11 08:31:03;;;;;;;3.97;1.07;;;;;;;21.08;65.55;100807.47;5024805;28;20029;-74
2022/07/11 08:33:28;;;;;;;8.43;1.60;;;;;;;21.15;67.69;100913.25;5012620;28;20386;-74
2022/07/11 08:35:54;;;;;;;3.60;1.03;;;;;;;21.75;68.46;101051.03;5020291;28;20027;-77
2022/07/11 08:38:19;;;;;;;3.67;1.10;;;;;;;21.70;66.94;100972.06;5023458;28;20178;-77
2022/07/11 08:40:44;;;;;;;3.77;1.07;;;;;;;21.31;65.25;100811.31;5024690;28;20482;-77
2022/07/11 08:43:15;;;;;;;4.07;0.87;;;;;;;21.89;62.83;100859.53;5023357;28;20128;-77
2022/07/11 08:45:41;;;;;;;3.38;0.90;;;;;;;22.08;65.67;101000.81;5023743;28;20029;-74
2022/07/11 08:48:08;;;;;;;4.57;1.20;;;;;;;22.80;59.61;100915.44;5024877;28;20036;-75
2022/07/11 08:50:35;;;;;;;1.90;0.93;;;;;;;22.80;59.81;100926.34;5023058;28;20030;-73
2022/07/11 08:53:02;;;;;;;2.38;0.93;;;;;;;23.22;55.23;100754.56;5023407;28;20021;-75
2022/07/11 08:55:28;;;;;;;3.25;0.82;;;;;;;22.14;56.41;100578.44;5014999;28;20036;-74
2022/07/11 08:57:53;;;;;;;7.55;1.48;;;;;;;20.18;59.77;100343.81;5024059;28;20056;-75
2022/07/11 09:00:19;;;;;;;5.63;0.90;;;;;;;19.33;69.41;100565.00;5023273;28;20041;-74
2022/07/11 09:02:45;;;;;;;5.80;1.10;;;;;;;20.39;77.89;101066.31;5025223;28;20272;-77
2022/07/11 09:05:11;;;;;;;4.20;0.98;;;;;;;21.71;66.26;101018.03;5024420;28;20522;-77
2022/07/11 09:07:48;;;;;;;3.03;1.00;;;;;;;21.83;58.35;100694.69;5024786;28;20053;-76
2022/07/11 09:10:14;;;;;;;3.97;1.20;;;;;;;22.35;58.86;100862.50;5024301;28;20057;-77
2022/07/11 09:13:03;;;;;;;3.45;1.00;;;;;;;21.94;59.67;100782.72;5023659;28;20060;-77
2022/07/11 09:15:39;;;;;;;3.63;1.23;;;;;;;21.82;61.97;100860.69;5013606;28;20407;-77
2022/07/11 09:18:28;;;;;;;6.88;1.52;;;;;;;22.27;63.23;101005.13;5018550;28;20099;-78
2022/07/11 09:26:36;;;;;;;6.30;1.08;;;;;;;22.08;57.50;100699.03;5023500;28;20104;-76
2022/07/11 09:29:09;;;;;;;4.07;1.23;;;;;;;22.63;56.20;100755.66;5024791;28;20032;-76
2022/07/11 09:31:36;;;;;;;6.88;1.27;;;;;;;23.32;58.18;101021.66;5019888;28;20034;-76
2022/07/11 09:34:09;;;;;;;3.70;0.82;;;;;;;24.27;53.83;100951.22;5027858;28;20091;-77
2022/07/11 09:36:46;;;;;;;3.20;1.20;;;;;;;23.41;51.96;100605.31;5026821;28;20041;-76
2022/07/11 09:39:21;;;;;;;3.83;1.13;;;;;;;23.28;54.06;100761.75;5028076;28;20068;-76
2022/07/11 09:41:48;;;;;;;5.20;1.00;;;;;;;22.60;55.20;100650.03;5027841;28;20236;-77
2022/07/11 09:44:17;;;;;;;2.90;0.98;;;;;;;21.85;55.07;100468.91;5028046;28;20120;-76
2022/07/11 09:46:46;;;;;;;2.88;0.70;;;;;;;21.97;54.45;100521.31;5028166;28;20087;-76
2022/07/11 09:49:11;;;;;;;5.10;0.80;;;;;;;22.22;55.02;100640.63;5022562;28;20529;-76
2022/07/11 09:51:38;;;;;;;2.38;0.65;;;;;;;22.85;52.48;100616.16;5027907;28;20104;-76
2022/07/11 09:54:05;;;;;;;2.28;0.80;;;;;;;22.52;52.74;100557.91;5026607;28;20328;-76
2022/07/11 09:56:34;;;;;;;4.40;0.93;;;;;;;23.04;52.55;100682.94;5012325;28;20029;-76
2022/07/11 09:59:02;;;;;;;3.85;0.70;;;;;;;23.22;53.24;100746.41;5026477;28;20045;-76
2022/07/11 10:01:29;;;;;;;5.50;1.95;;;;;;;23.93;51.86;100837.53;5025902;28;20156;-77
2022/07/11 10:03:54;;;;;;;;;;;;;;;23.45;52.40;100697.19;5026812;28;20052;-76
2022/07/11 10:06:21;;;;;;;2.67;0.98;;;;;;;21.93;56.09;100585.38;5027082;28;19913;-77
2022/07/11 10:08:48;;;;;;;3.08;1.10;;;;;;;21.48;58.55;100608.63;5010467;28;20158;-77
2022/07/11 10:11:13;;;;;;;3.05;1.25;;;;;;;22.31;57.72;100742.50;5026049;28;20118;-77
2022/07/11 10:13:39;;;;;;;4.18;1.10;;;;;;;23.32;55.61;100890.91;5026234;28;20116;-76
2022/07/11 10:16:11;;;;;;;;;;;;;;;23.28;52.49;100658.25;5026464;28;20076;-76
2022/07/11 10:18:51;;;;;;;3.13;0.88;;;;;;;24.37;52.39;100938.56;5021837;28;19914;-77
2022/07/11 10:21:31;;;;;;;2.15;0.85;;;;;;;25.19;49.76;100881.50;5016734;28;20643;-76
2022/07/11 10:24:36;;;;;;;3.25;0.90;;;;;;;24.31;51.02;100794.97;5022800;28;20040;-77
2022/07/11 10:27:21;;;;;;;2.80;0.82;;;;;;;23.91;48.59;100514.41;5003900;28;20042;-77
2022/07/11 10:29:52;;;;;;;3.47;0.90;;;;;;;25.15;48.31;100810.16;5011288;28;20022;-77
2022/07/11 10:32:19;;;;;;;1.67;0.90;;;;;;;25.01;47.74;100727.81;5022238;28;20625;-78
2022/07/11 10:34:46;;;;;;;2.42;1.00;;;;;;;23.62;48.95;100505.59;5007667;28;20053;-77
2022/07/11 10:37:12;;;;;;;2.75;0.70;;;;;;;24.83;48.12;100794.53;5017047;28;20030;-73
2022/07/11 10:39:46;;;;;;;7.80;1.38;;;;;;;25.54;46.44;100811.88;5020978;28;20021;-74
2022/07/11 10:42:19;;;;;;;3.83;1.38;;;;;;;24.28;48.02;100552.69;5017370;28;20081;-74
2022/07/11 10:44:54;;;;;;;2.03;0.90;;;;;;;23.46;51.17;100633.47;5019349;28;20056;-74
2022/07/11 10:47:35;;;;;;;2.88;0.70;;;;;;;22.68;51.87;100461.88;5017661;28;20050;-77
2022/07/11 10:50:10;;;;;;;2.47;0.73;;;;;;;23.31;51.95;100707.59;5015116;28;20613;-74
2022/07/11 10:52:37;;;;;;;5.57;1.05;;;;;;;23.26;49.29;100448.78;5008028;28;20030;-75
2022/07/11 10:55:20;;;;;;;2.63;0.82;;;;;;;23.89;48.40;100565.63;5006745;28;20022;-75
2022/07/11 10:57:55;;;;;;;3.25;0.85;;;;;;;24.68;48.68;100801.69;5002414;28;20038;-74
2022/07/11 11:00:21;;;;;;;4.93;1.40;;;;;;;25.02;47.84;100802.38;5007306;28;20038;-77
2022/07/11 11:03:10;;;;;;;4.00;1.00;;;;;;;23.96;49.04;100612.63;5006478;28;20033;-77
2022/07/11 11:05:48;;;;;;;3.40;1.48;;;;;;;24.61;48.68;100764.53;5022211;28;20538;-77
2022/07/11 11:08:32;;;;;;;2.83;0.93;;;;;;;25.06;46.57;100677.88;5023703;28;20049;-77
2022/07/11 11:10:59;;;;;;;1.92;1.00;;;;;;;24.28;45.89;100355.44;5026569;28;20064;-77
2022/07/11 11:13:26;;;;;;;4.65;0.80;;;;;;;24.61;46.32;100505.25;5008296;28;20029;-76
2022/07/11 11:15:59;;;;;;;1.40;0.55;;;;;;;25.15;45.03;100564.31;5025666;28;20461;-77
2022/07/11 11:18:24;;;;;;;1.83;0.65;;;;;;;24.34;44.87;100272.56;5027495;28;20053;-77
2022/07/11 11:21:02;;;;;;;1.43;0.60;;;;;;;24.59;46.25;100542.88;5009405;28;20013;-77
2022/07/11 11:23:32;;;;;;;1.88;1.02;;;;;;;24.20;45.02;100299.50;5026901;28;20497;-77
2022/07/11 11:26:08;;;;;;;3.47;0.75;;;;;;;23.56;45.95;100208.56;5027688;28;20045;-78